Hovedside
METAR-TAF:

METAR-TAF

Lufthavner :

Bodø, Norge

Bodø lufthavn

breddegrad: 67-16N, lengdegrad: 014-22E, høyde over havet: 1 m

Gjeldene værobservasjon

Denne rapporten ble laget for 26 minutter siden, klokken 21:20 UTC
Vind 3 kt fra Øst
Temperatur 14°C
Luftfuktighet 88%
Trykk 1006 hPa
Sikt 10 km eller mer
Få skyer i en høyde av 5000 ft
Brutte skyer i en høyde av 7500 ft

METAR: ENBO 182120Z 10003KT 9999 FEW050 BKN075 14/12 Q1006

Tid: 23:46 (21:46 UTC)

Varsel

Varsel gyldig fra 18. klokken 18 UTC til 19. klokken 18 UTC
Vind 8 kt fra Øst
Sikt 10 km eller mer
Få skyer i en høyde av 5000 ft
Brutte skyer i en høyde av 8000 ft

TAF: ENBO 1818/1918 09008KT 9999 FEW050 BKN080

Værobservasjoner og værvarsel for over 4000 flyplasser (METAR- og TAF-rapporter).

Tilgjengelige stasjoner er representert av de røde og gule prikkene på kartet.

Hold musepekeren over prikken for å se navnet på stasjonen.

Klikk så for å se værobservasjoner og -varsler.

For å forandre kartet kan du klikke på den grønne knappen med svart kryss for å zoome inn, på den grønne knappen med strek for å zoome ut, eller på de grønne pilene for å se tilstøtende kart.


METAR-TAF: